Time,TemperatureF,DewpointF,PressureIn,WindDirection,WindDirectionDegrees,WindSpeedMPH,WindSpeedGustMPH,Humidity,HourlyPrecipIn,Conditions,Clouds,dailyrainin,SoftwareType,DateUTC
2013-06-17 00:52:00,63.0,-99.9,-100.00,WSW,250,-999.0,-999.0,-999,0.00,,,-99.99,,2013-06-17 04:52:00,
2013-06-17 01:33:00,63.0,-99.9,-100.00,WSW,250,-999.0,-999.0,-999,0.00,,,-99.99,,2013-06-17 05:33:00,
2013-06-17 01:44:00,63.0,-99.9,-100.00,WSW,250,-999.0,-999.0,-999,0.00,,,-99.99,,2013-06-17 05:44:00,
2013-06-17 01:52:00,61.0,-99.9,-100.00,WSW,250,-999.0,-999.0,-999,0.00,,,-99.99,,2013-06-17 05:52:00,
2013-06-17 02:33:00,61.0,-99.9,-100.00,WSW,250,-999.0,-999.0,-999,0.00,,,-99.99,,2013-06-17 06:33:00,
2013-06-17 02:44:00,61.0,-99.9,-100.00,WSW,250,-999.0,-999.0,-999,0.00,,,-99.99,,2013-06-17 06:44:00,
2013-06-17 02:52:00,60.0,-99.9,-100.00,WSW,250,-999.0,-999.0,-999,0.00,,,-99.99,,2013-06-17 06:52:00,
2013-06-17 03:33:00,60.0,-99.9,-100.00,WSW,250,-999.0,-999.0,-999,0.00,,,-99.99,,2013-06-17 07:33:00,
2013-06-17 03:43:00,60.0,-99.9,-100.00,WSW,250,-999.0,-999.0,-999,0.00,,,-99.99,,2013-06-17 07:43:00,
2013-06-17 03:52:00,59.0,-99.9,-100.00,WSW,250,-999.0,-999.0,-999,0.00,,,-99.99,,2013-06-17 07:52:00,
2013-06-17 04:34:00,59.0,-99.9,-100.00,WSW,250,-999.0,-999.0,-999,0.00,,,-99.99,,2013-06-17 08:34:00,
2013-06-17 04:43:00,59.0,-99.9,-100.00,WSW,250,-999.0,-999.0,-999,0.00,,,-99.99,,2013-06-17 08:43:00,
2013-06-17 05:52:00,59.0,-99.9,-100.00,WSW,250,-999.0,-999.0,-999,0.00,,,-99.99,,2013-06-17 09:52:00,
2013-06-17 06:33:00,59.0,-99.9,-100.00,WSW,250,-999.0,-999.0,-999,0.00,,,-99.99,,2013-06-17 10:33:00,
2013-06-17 06:43:00,59.0,-99.9,-100.00,WSW,250,-999.0,-999.0,-999,0.00,,,-99.99,,2013-06-17 10:43:00,
2013-06-17 06:53:00,60.0,-99.9,-100.00,WSW,250,-999.0,-999.0,-999,0.00,,,-99.99,,2013-06-17 10:53:00,
2013-06-17 07:33:00,60.0,-99.9,-100.00,WSW,250,-999.0,-999.0,-999,0.00,,,-99.99,,2013-06-17 11:33:00,
2013-06-17 07:43:00,60.0,-99.9,-100.00,WSW,250,-999.0,-999.0,-999,0.00,,,-99.99,,2013-06-17 11:43:00,
2013-06-17 07:53:00,66.0,-99.9,-100.00,WSW,250,-999.0,-999.0,-999,0.00,,,-99.99,,2013-06-17 11:53:00,
2013-06-17 08:33:00,66.0,-99.9,-100.00,WSW,250,-999.0,-999.0,-999,0.00,,,-99.99,,2013-06-17 12:33:00,
2013-06-17 08:43:00,66.0,-99.9,-100.00,WSW,250,-999.0,-999.0,-999,0.00,,,-99.99,,2013-06-17 12:43:00,
2013-06-17 08:52:00,74.0,-99.9,-100.00,SW,216,-999.0,-999.0,-999,0.00,,,-99.99,,2013-06-17 12:52:00,
2013-06-17 09:33:00,74.0,-99.9,-100.00,SW,216,-999.0,-999.0,-999,0.00,,,-99.99,,2013-06-17 13:33:00,
2013-06-17 09:43:00,74.0,-99.9,-100.00,SW,216,-999.0,-999.0,-999,0.00,,,-99.99,,2013-06-17 13:43:00,
2013-06-17 09:53:00,77.0,-99.9,-100.00,SW,232,-999.0,2.0,-999,0.00,,,-99.99,,2013-06-17 13:53:00,
2013-06-17 10:44:00,77.0,-99.9,-100.00,SW,232,-999.0,2.0,-999,0.00,,,-99.99,,2013-06-17 14:44:00,
2013-06-17 10:52:00,79.0,-99.9,-100.00,ENE,66,3.0,7.0,-999,0.00,,,-99.99,,2013-06-17 14:52:00,
2013-06-17 11:33:00,79.0,-99.9,-100.00,ENE,66,3.0,7.0,-999,0.00,,,-99.99,,2013-06-17 15:33:00,
2013-06-17 11:43:00,79.0,-99.9,-100.00,ENE,66,3.0,7.0,-999,0.00,,,-99.99,,2013-06-17 15:43:00,
2013-06-17 11:52:00,81.0,-99.9,-100.00,SSW,209,8.0,8.0,-999,0.00,,,-99.99,,2013-06-17 15:52:00,
2013-06-17 12:33:00,81.0,-99.9,-100.00,SSW,209,8.0,8.0,-999,0.00,,,-99.99,,2013-06-17 16:33:00,
2013-06-17 12:43:00,81.0,-99.9,-100.00,SSW,209,8.0,8.0,-999,0.00,,,-99.99,,2013-06-17 16:43:00,
2013-06-17 12:52:00,81.0,-99.9,-100.00,SSE,150,3.0,11.0,-999,0.00,,,-99.99,,2013-06-17 16:52:00,
2013-06-17 13:34:00,81.0,-99.9,-100.00,SSE,150,3.0,11.0,-999,0.00,,,-99.99,,2013-06-17 17:34:00,
2013-06-17 13:43:00,81.0,-99.9,-100.00,SSE,150,3.0,11.0,-999,0.00,,,-99.99,,2013-06-17 17:43:00,
2013-06-17 13:52:00,78.0,-99.9,-100.00,WSW,248,3.0,7.0,-999,0.00,,,-99.99,,2013-06-17 17:52:00,
2013-06-17 14:33:00,78.0,-99.9,-100.00,WSW,248,3.0,7.0,-999,0.00,,,-99.99,,2013-06-17 18:33:00,
2013-06-17 14:43:00,78.0,-99.9,-100.00,WSW,248,3.0,7.0,-999,0.00,,,-99.99,,2013-06-17 18:43:00,
2013-06-17 14:53:00,83.0,-99.9,-100.00,ENE,77,5.0,6.0,-999,0.00,,,-99.99,,2013-06-17 18:53:00,
2013-06-17 15:33:00,83.0,-99.9,-100.00,ENE,77,5.0,6.0,-999,0.00,,,-99.99,,2013-06-17 19:33:00,
2013-06-17 15:44:00,83.0,-99.9,-100.00,ENE,77,5.0,6.0,-999,0.00,,,-99.99,,2013-06-17 19:44:00,
2013-06-17 15:52:00,82.0,-99.9,-100.00,East,82,5.0,10.0,-999,0.00,,,-99.99,,2013-06-17 19:52:00,
2013-06-17 16:34:00,82.0,-99.9,-100.00,East,82,5.0,10.0,-999,0.00,,,-99.99,,2013-06-17 20:34:00,
2013-06-17 16:44:00,82.0,-99.9,-100.00,East,82,5.0,10.0,-999,0.00,,,-99.99,,2013-06-17 20:44:00,
2013-06-17 17:33:00,79.0,-99.9,-100.00,WNW,283,-999.0,7.0,-999,0.00,,,-99.99,,2013-06-17 21:33:00,
2013-06-17 17:43:00,79.0,-99.9,-100.00,WNW,283,-999.0,7.0,-999,0.00,,,-99.99,,2013-06-17 21:43:00,
2013-06-17 17:52:00,79.0,-99.9,-100.00,WNW,283,-999.0,7.0,-999,0.00,,,-99.99,,2013-06-17 21:52:00,
2013-06-17 19:53:00,73.0,-99.9,-100.00,WSW,250,-999.0,-999.0,-999,0.00,,,-99.99,,2013-06-17 23:53:00,
2013-06-17 20:33:00,73.0,-99.9,-100.00,WSW,250,-999.0,-999.0,-999,0.00,,,-99.99,,2013-06-18 00:33:00,
2013-06-17 20:43:00,73.0,-99.9,-100.00,WSW,250,-999.0,-999.0,-999,0.00,,,-99.99,,2013-06-18 00:43:00,
2013-06-17 20:52:00,70.0,-99.9,-100.00,WSW,250,-999.0,-999.0,-999,0.00,,,-99.99,,2013-06-18 00:52:00,
2013-06-17 21:44:00,70.0,-99.9,-100.00,WSW,250,-999.0,-999.0,-999,0.00,,,-99.99,,2013-06-18 01:44:00,
2013-06-17 21:52:00,66.0,-99.9,-100.00,WSW,250,-999.0,-999.0,-999,0.00,,,-99.99,,2013-06-18 01:52:00,
2013-06-17 22:43:00,66.0,-99.9,-100.00,WSW,250,-999.0,-999.0,-999,0.00,,,-99.99,,2013-06-18 02:43:00,
2013-06-17 22:52:00,65.0,-99.9,-100.00,WSW,250,-999.0,-999.0,-999,0.00,,,-99.99,,2013-06-18 02:52:00,
2013-06-17 23:34:00,65.0,-99.9,-100.00,WSW,250,-999.0,-999.0,-999,0.00,,,-99.99,,2013-06-18 03:34:00,
2013-06-17 23:43:00,65.0,-99.9,-100.00,WSW,250,-999.0,-999.0,-999,0.00,,,-99.99,,2013-06-18 03:43:00,
2013-06-17 23:52:00,62.0,-99.9,-100.00,WSW,250,-999.0,-999.0,-999,0.00,,,-99.99,,2013-06-18 03:52:00,